createdAt,value
2023-05-10T00:00:47.465Z,151.24
2023-05-10T00:01:47.470Z,152.75
2023-05-10T00:02:47.562Z,150.12
2023-05-10T00:03:47.546Z,149.60
2023-05-10T00:04:47.524Z,150.98
2023-05-10T00:05:47.538Z,152.12
2023-05-10T00:06:47.530Z,152.29
2023-05-10T00:07:47.542Z,152.84
2023-05-10T00:08:47.546Z,154.28
2023-05-10T00:09:47.537Z,151.81
2023-05-10T00:10:47.554Z,153.50
2023-05-10T00:11:47.571Z,150.64
2023-05-10T00:12:47.620Z,151.03
2023-05-10T00:13:47.581Z,150.35
2023-05-10T00:14:47.611Z,151.89
2023-05-10T00:15:47.616Z,152.58
2023-05-10T00:16:47.670Z,151.26
2023-05-10T00:17:47.664Z,151.55
2023-05-10T00:18:47.641Z,149.33
2023-05-10T00:19:47.644Z,148.63
2023-05-10T00:20:47.692Z,147.75
2023-05-10T00:21:47.716Z,150.90
2023-05-10T00:22:47.774Z,150.62
2023-05-10T00:23:47.768Z,148.38
2023-05-10T00:24:47.796Z,151.92
2023-05-10T00:25:47.839Z,148.40
2023-05-10T00:26:47.873Z,151.02
2023-05-10T00:27:47.928Z,151.96
2023-05-10T00:28:47.947Z,150.88
2023-05-10T00:29:47.984Z,151.98
2023-05-10T00:30:48.028Z,151.68
2023-05-10T00:31:48.115Z,147.32
2023-05-10T00:32:48.127Z,150.07
2023-05-10T00:33:48.147Z,146.61
2023-05-10T00:34:48.161Z,150.15
2023-05-10T00:35:48.202Z,149.43
2023-05-10T00:36:48.233Z,150.53
2023-05-10T00:37:48.269Z,148.57
2023-05-10T00:38:48.366Z,148.80
2023-05-10T00:39:48.313Z,149.62
2023-05-10T00:40:48.361Z,149.85
2023-05-10T00:41:48.389Z,149.26
2023-05-10T00:42:48.413Z,149.68
2023-05-10T00:43:48.448Z,149.94
2023-05-10T00:44:48.482Z,149.27
2023-05-10T00:45:48.544Z,151.39
2023-05-10T00:46:48.561Z,150.28
2023-05-10T00:47:48.616Z,150.34
2023-05-10T00:48:48.589Z,150.30
2023-05-10T00:49:48.573Z,148.65
2023-05-10T00:50:48.584Z,146.09
2023-05-10T00:51:48.597Z,148.48
2023-05-10T00:52:48.605Z,149.12
2023-05-10T00:53:48.647Z,147.68
2023-05-10T00:54:48.665Z,146.99
2023-05-10T00:55:48.692Z,144.91
2023-05-10T00:56:48.644Z,146.68
2023-05-10T00:57:48.650Z,148.26
2023-05-10T00:58:48.674Z,147.66
2023-05-10T00:59:48.676Z,149.42
2023-05-10T01:00:48.694Z,147.53
2023-05-10T01:01:48.788Z,147.73
2023-05-10T01:02:48.821Z,147.24
2023-05-10T01:03:48.731Z,148.38
2023-05-10T01:04:48.776Z,146.61
2023-05-10T01:05:48.759Z,147.33
2023-05-10T01:06:48.775Z,146.98
2023-05-10T01:07:48.791Z,145.80
2023-05-10T01:08:48.832Z,145.06
2023-05-10T01:09:48.853Z,146.42
2023-05-10T01:10:48.913Z,147.83
2023-05-10T01:11:48.929Z,148.26
2023-05-10T01:12:48.986Z,144.84
2023-05-10T01:13:49.013Z,146.92
2023-05-10T01:14:49.050Z,145.15
2023-05-10T01:15:49.106Z,146.67
2023-05-10T01:16:49.136Z,144.19
2023-05-10T01:17:49.231Z,144.83
2023-05-10T01:18:49.200Z,148.18
2023-05-10T01:19:49.230Z,147.56
2023-05-10T01:20:49.268Z,148.97
2023-05-10T01:21:49.319Z,147.16
2023-05-10T01:22:49.381Z,144.17
2023-05-10T01:23:49.393Z,144.80
2023-05-10T01:24:49.427Z,142.98
2023-05-10T01:25:49.463Z,141.74
2023-05-10T01:26:49.512Z,143.68
2023-05-10T01:27:49.528Z,143.69
2023-05-10T01:28:49.599Z,143.90
2023-05-10T01:29:55.726Z,145.60
2023-05-10T01:30:50.621Z,145.76
2023-05-10T01:31:49.729Z,145.37
2023-05-10T01:32:49.685Z,145.16
2023-05-10T01:33:49.655Z,146.40
2023-05-10T01:34:49.667Z,146.00
2023-05-10T01:35:49.738Z,146.52
2023-05-10T01:36:49.701Z,149.12
2023-05-10T01:37:49.698Z,142.34
2023-05-10T01:38:49.711Z,145.51
2023-05-10T01:39:49.709Z,144.97
2023-05-10T01:40:49.732Z,142.81
2023-05-10T01:41:49.738Z,144.74
2023-05-10T01:42:49.769Z,146.09
2023-05-10T01:43:49.749Z,146.41
2023-05-10T01:44:49.783Z,145.41
2023-05-10T01:45:49.776Z,145.53
2023-05-10T01:46:49.794Z,145.62
2023-05-10T01:47:49.820Z,144.95
2023-05-10T01:48:49.795Z,144.24
2023-05-10T01:49:49.791Z,144.86
2023-05-10T01:50:49.794Z,143.80
2023-05-10T01:51:49.827Z,145.63
2023-05-10T01:52:49.821Z,146.73
2023-05-10T01:53:49.832Z,143.74
2023-05-10T01:54:49.843Z,145.58
2023-05-10T01:55:49.855Z,145.69
2023-05-10T01:56:49.867Z,146.99
2023-05-10T01:57:49.849Z,144.84
2023-05-10T01:58:49.873Z,148.59
2023-05-10T01:59:49.896Z,150.62
2023-05-10T02:00:49.995Z,148.47
2023-05-10T02:01:49.971Z,149.06
2023-05-10T02:02:50.078Z,146.77
2023-05-10T02:03:50.139Z,145.53
2023-05-10T02:04:50.097Z,147.73
2023-05-10T02:05:50.140Z,148.55
2023-05-10T02:06:50.162Z,147.65
2023-05-10T02:07:50.239Z,148.04
2023-05-10T02:08:50.264Z,145.99
2023-05-10T02:09:50.298Z,145.21
2023-05-10T02:10:50.331Z,148.11
2023-05-10T02:11:50.393Z,146.91
2023-05-10T02:12:50.531Z,146.78
2023-05-10T02:13:50.476Z,146.91
2023-05-10T02:14:50.512Z,148.04
2023-05-10T02:15:50.596Z,148.19
2023-05-10T02:16:50.666Z,150.20
2023-05-10T02:17:50.796Z,150.34
2023-05-10T02:18:50.720Z,150.52
2023-05-10T02:19:50.761Z,147.05
2023-05-10T02:20:50.779Z,148.07
2023-05-10T02:21:50.824Z,149.47
2023-05-10T02:22:50.872Z,151.65
2023-05-10T02:23:50.940Z,153.11
2023-05-10T02:24:50.927Z,153.19
2023-05-10T02:25:50.928Z,151.42
2023-05-10T02:26:50.932Z,152.32
2023-05-10T02:27:50.947Z,153.30
2023-05-10T02:28:50.949Z,151.28
2023-05-10T02:29:50.982Z,151.52
2023-05-10T02:30:50.965Z,153.30
2023-05-10T02:31:51.017Z,153.32
2023-05-10T02:32:51.036Z,152.88
2023-05-10T02:33:51.024Z,152.24
2023-05-10T02:34:51.057Z,153.43
2023-05-10T02:35:51.014Z,153.60
2023-05-10T02:36:51.045Z,154.11
2023-05-10T02:37:51.048Z,154.74
2023-05-10T02:38:51.061Z,155.89
2023-05-10T02:39:51.075Z,155.81
2023-05-10T02:40:51.080Z,155.78
2023-05-10T02:41:51.079Z,155.92
2023-05-10T02:42:51.097Z,156.48
2023-05-10T02:43:51.112Z,156.50
2023-05-10T02:44:51.105Z,156.28
2023-05-10T02:45:51.169Z,156.01
2023-05-10T02:46:51.116Z,156.28
2023-05-10T02:47:51.132Z,156.66
2023-05-10T02:48:51.125Z,157.71
2023-05-10T02:49:51.164Z,159.05
2023-05-10T02:50:51.150Z,160.33
2023-05-10T02:51:51.154Z,158.30
2023-05-10T02:52:51.157Z,157.40
2023-05-10T02:53:51.182Z,157.35
2023-05-10T02:54:51.183Z,159.18
2023-05-10T02:55:51.198Z,158.09
2023-05-10T02:56:51.197Z,159.46
2023-05-10T02:57:51.204Z,159.45
2023-05-10T02:58:51.236Z,160.43
2023-05-10T02:59:51.224Z,157.61
2023-05-10T03:00:51.275Z,158.53
2023-05-10T03:01:51.364Z,159.30
2023-05-10T03:02:51.387Z,159.23
2023-05-10T03:03:51.376Z,159.30
2023-05-10T03:04:51.480Z,159.64
2023-05-10T03:05:51.417Z,160.26
2023-05-10T03:06:51.611Z,160.16
2023-05-10T03:07:51.418Z,161.64
2023-05-10T03:08:51.398Z,161.69
2023-05-10T03:09:51.395Z,161.63
2023-05-10T03:10:51.408Z,161.18
2023-05-10T03:11:51.404Z,161.56
2023-05-10T03:12:51.454Z,158.38
2023-05-10T03:13:51.436Z,160.48
2023-05-10T03:14:51.449Z,159.95
2023-05-10T03:15:51.456Z,160.92
2023-05-10T03:16:51.436Z,162.16
2023-05-10T03:17:51.496Z,158.96
2023-05-10T03:18:51.517Z,157.95
2023-05-10T03:19:51.589Z,160.84
2023-05-10T03:20:51.611Z,160.84
2023-05-10T03:21:51.654Z,162.76
2023-05-10T03:22:51.681Z,161.78
2023-05-10T03:23:51.737Z,163.38
2023-05-10T03:24:51.783Z,162.83
2023-05-10T03:25:51.788Z,162.98
2023-05-10T03:26:51.779Z,163.02
2023-05-10T03:27:51.788Z,163.59
2023-05-10T03:28:51.798Z,163.66
2023-05-10T03:29:51.801Z,164.49
2023-05-10T03:30:51.802Z,163.27
2023-05-10T03:33:10.910Z,25.00
2023-05-10T03:34:10.888Z,25.00
2023-05-10T03:35:10.890Z,25.00
2023-05-10T03:36:10.910Z,25.00
2023-05-10T03:37:10.897Z,25.00
2023-05-10T03:38:10.889Z,25.00
2023-05-10T03:39:10.883Z,28.76
2023-05-10T03:40:10.872Z,27.85
2023-05-10T03:41:10.873Z,25.41
2023-05-10T03:42:10.912Z,28.62
2023-05-10T03:43:10.899Z,25.32
2023-05-10T03:44:10.887Z,26.17
2023-05-10T03:45:10.915Z,25.00
2023-05-10T03:46:10.983Z,30.00
2023-05-10T03:47:10.908Z,25.76
2023-05-10T03:48:10.986Z,27.44
2023-05-10T03:49:10.907Z,26.90
2023-05-10T03:50:10.918Z,26.87
2023-05-10T03:51:10.915Z,27.74
2023-05-10T03:52:10.905Z,31.42
2023-05-10T03:53:10.897Z,29.38
2023-05-10T03:54:10.953Z,29.23
2023-05-10T03:55:10.884Z,27.71
2023-05-10T03:56:10.910Z,34.23
2023-05-10T03:57:10.880Z,30.57
2023-05-10T03:58:10.869Z,30.03
2023-05-10T03:59:10.878Z,32.38
2023-05-10T04:00:10.870Z,31.35
2023-05-10T04:01:10.859Z,31.79
2023-05-10T04:02:10.917Z,34.27
2023-05-10T04:03:10.894Z,32.69
2023-05-10T04:04:10.922Z,32.91
2023-05-10T04:05:10.830Z,33.38
2023-05-10T04:06:10.843Z,33.35
2023-05-10T04:07:10.829Z,34.44
2023-05-10T04:08:10.824Z,34.38
2023-05-10T04:09:10.827Z,33.95
2023-05-10T04:10:10.813Z,35.19
2023-05-10T04:11:10.806Z,35.69
2023-05-10T04:12:11.105Z,31.15
2023-05-10T04:13:10.816Z,34.55
2023-05-10T04:14:10.806Z,40.78
2023-05-10T04:15:10.842Z,37.37
2023-05-10T04:16:10.886Z,38.73
2023-05-10T04:17:10.960Z,38.28
2023-05-10T04:18:11.094Z,38.15
2023-05-10T04:19:11.070Z,37.56
2023-05-10T04:20:11.117Z,38.33
2023-05-10T04:21:11.189Z,37.02
2023-05-10T04:22:11.226Z,38.88
2023-05-10T04:23:11.326Z,35.51
2023-05-10T04:24:11.983Z,37.17
2023-05-10T04:25:11.365Z,37.86
2023-05-10T04:26:11.407Z,39.51
2023-05-10T04:27:11.472Z,38.09
2023-05-10T04:28:11.503Z,37.26
2023-05-10T04:29:11.508Z,37.51
2023-05-10T04:30:11.517Z,37.96
2023-05-10T04:31:11.556Z,37.46
2023-05-10T04:32:11.491Z,37.95
2023-05-10T04:33:11.495Z,37.53
2023-05-10T04:34:11.496Z,37.97
2023-05-10T04:35:11.494Z,38.80
2023-05-10T04:36:11.486Z,40.32
2023-05-10T04:37:11.484Z,42.35
2023-05-10T04:38:11.479Z,42.15
2023-05-10T04:39:11.486Z,41.16
2023-05-10T04:40:11.484Z,40.03
2023-05-10T04:41:11.511Z,42.62
2023-05-10T04:42:11.464Z,44.14
2023-05-10T04:43:11.466Z,45.24
2023-05-10T04:44:11.473Z,45.48
2023-05-10T04:45:11.444Z,45.61
2023-05-10T04:46:11.490Z,46.27
2023-05-10T04:47:12.785Z,47.55
2023-05-10T04:48:11.435Z,45.56
2023-05-10T04:49:11.465Z,45.81
2023-05-10T04:50:11.415Z,47.03
2023-05-10T04:51:11.412Z,48.68
2023-05-10T04:52:11.410Z,49.44
2023-05-10T04:53:11.410Z,50.18
2023-05-10T04:54:11.497Z,48.94
2023-05-10T04:55:11.431Z,50.25
2023-05-10T04:56:11.412Z,47.07
2023-05-10T04:57:11.390Z,50.04
2023-05-10T04:58:11.387Z,49.53
2023-05-10T04:59:11.398Z,49.24
2023-05-10T05:00:11.426Z,45.86
2023-05-10T05:01:11.528Z,48.22
2023-05-10T05:02:11.526Z,47.79
2023-05-10T05:03:11.668Z,47.69
2023-05-10T05:04:11.649Z,46.65
2023-05-10T05:05:11.698Z,49.03
2023-05-10T05:06:11.776Z,47.62
2023-05-10T05:07:11.789Z,49.48
2023-05-10T05:08:11.837Z,47.37
2023-05-10T05:09:11.880Z,51.34
2023-05-10T05:10:11.950Z,47.88
2023-05-10T05:11:11.984Z,51.26
2023-05-10T05:12:12.062Z,51.04
2023-05-10T05:13:12.101Z,51.22
2023-05-10T05:14:12.170Z,50.51
2023-05-10T05:15:12.211Z,51.84
2023-05-10T05:16:12.453Z,50.59
2023-05-10T05:17:12.347Z,49.63
2023-05-10T05:18:12.464Z,51.28
2023-05-10T05:19:12.456Z,49.83
2023-05-10T05:20:12.564Z,49.10
2023-05-10T05:21:12.573Z,51.34
2023-05-10T05:22:12.629Z,50.28
2023-05-10T05:23:12.693Z,51.09
2023-05-10T05:24:12.794Z,50.37
2023-05-10T05:25:12.829Z,50.48
2023-05-10T05:26:12.808Z,50.72
2023-05-10T05:27:12.810Z,51.33
2023-05-10T05:28:12.814Z,51.71
2023-05-10T05:29:12.872Z,50.90
2023-05-10T05:30:12.844Z,54.28
2023-05-10T05:31:13.074Z,55.92
2023-05-10T05:32:12.894Z,61.78
2023-05-10T05:33:12.841Z,66.18
2023-05-10T05:34:12.852Z,71.01
2023-05-10T05:35:12.809Z,85.80
2023-05-10T05:36:12.859Z,111.52
2023-05-10T05:37:12.924Z,127.46
2023-05-10T05:38:12.948Z,138.54
2023-05-10T05:39:13.003Z,153.58
2023-05-10T05:40:13.029Z,156.90
2023-05-10T05:41:13.085Z,164.96
2023-05-10T05:42:13.085Z,178.55
2023-05-10T05:43:13.156Z,181.38
2023-05-10T05:44:13.140Z,174.61
2023-05-10T05:45:13.171Z,184.38
2023-05-10T05:46:13.201Z,180.57
2023-05-10T05:47:13.195Z,188.32
2023-05-10T05:48:13.221Z,186.91
2023-05-10T05:49:13.231Z,184.72
2023-05-10T05:50:13.232Z,200.48
2023-05-10T05:51:13.222Z,197.59
2023-05-10T05:52:13.263Z,192.58
2023-05-10T05:53:13.261Z,196.64
2023-05-10T05:54:13.262Z,195.74
2023-05-10T05:55:13.259Z,211.29
2023-05-10T05:56:13.240Z,211.66
2023-05-10T05:57:13.231Z,214.32
2023-05-10T05:58:13.228Z,218.41
2023-05-10T05:59:13.208Z,227.31
2023-05-10T06:00:13.734Z,242.88
2023-05-10T06:01:13.216Z,244.67
2023-05-10T06:02:13.300Z,248.67
2023-05-10T06:03:13.319Z,250.00
2023-05-10T06:04:13.282Z,250.51
2023-05-10T06:05:13.180Z,253.22
2023-05-10T06:06:13.170Z,259.51
2023-05-10T06:07:13.177Z,277.10
2023-05-10T06:08:13.148Z,251.91
2023-05-10T06:09:13.157Z,258.82
2023-05-10T06:10:13.123Z,273.22
2023-05-10T06:11:13.120Z,295.85
2023-05-10T06:12:13.129Z,336.03
2023-05-10T06:13:13.152Z,312.73
2023-05-10T06:14:13.108Z,288.37
2023-05-10T06:15:13.134Z,269.49
2023-05-10T06:16:13.072Z,251.62
2023-05-10T06:17:13.057Z,249.72
2023-05-10T06:18:13.161Z,249.63
2023-05-10T06:19:13.032Z,249.65
2023-05-10T06:20:13.069Z,248.74
2023-05-10T06:21:13.096Z,249.76
2023-05-10T06:22:13.139Z,250.00
2023-05-10T06:23:13.167Z,249.95
2023-05-10T06:24:13.205Z,248.54
2023-05-10T06:25:13.262Z,250.00
2023-05-10T06:26:13.257Z,250.02
2023-05-10T06:27:14.138Z,250.00
2023-05-10T06:28:13.276Z,250.19
2023-05-10T06:29:13.237Z,251.29
2023-05-10T06:30:13.802Z,253.00
2023-05-10T06:31:13.265Z,256.41
2023-05-10T06:32:13.217Z,258.09
2023-05-10T06:33:13.198Z,248.99
2023-05-10T06:34:13.160Z,248.44
2023-05-10T06:35:13.152Z,248.68
2023-05-10T06:36:13.153Z,249.26
2023-05-10T06:37:13.139Z,249.06
2023-05-10T06:38:13.099Z,250.08
2023-05-10T06:39:13.075Z,249.65
2023-05-10T06:40:13.099Z,248.12
2023-05-10T06:41:13.040Z,245.99
2023-05-10T06:42:13.038Z,243.96
2023-05-10T06:43:13.012Z,248.04
2023-05-10T06:44:13.110Z,247.58
2023-05-10T06:45:12.971Z,247.89
2023-05-10T06:46:12.969Z,249.30
2023-05-10T06:47:12.921Z,252.79
2023-05-10T06:48:13.024Z,257.28
2023-05-10T06:49:12.920Z,269.67
2023-05-10T06:50:12.997Z,251.53
2023-05-10T06:51:12.898Z,245.64
2023-05-10T06:52:12.844Z,246.34
2023-05-10T06:53:12.877Z,244.10
2023-05-10T06:54:12.861Z,241.94
2023-05-10T06:55:12.810Z,240.61
2023-05-10T06:56:12.815Z,240.83
2023-05-10T06:57:23.262Z,240.59
2023-05-10T06:58:13.772Z,240.60
2023-05-10T06:59:12.796Z,236.29
2023-05-10T07:00:12.850Z,238.04
2023-05-10T07:01:12.792Z,235.34
2023-05-10T07:02:12.782Z,234.98
2023-05-10T07:03:12.864Z,239.20
2023-05-10T07:04:12.668Z,235.93
2023-05-10T07:05:12.654Z,233.43
2023-05-10T07:06:21.599Z,232.88
2023-05-10T07:07:13.651Z,233.89
2023-05-10T07:08:12.598Z,234.30
2023-05-10T07:09:12.600Z,232.34
2023-05-10T07:10:12.566Z,226.87
2023-05-10T07:11:12.539Z,227.42
2023-05-10T07:12:14.745Z,227.06
2023-05-10T07:13:12.681Z,227.87
2023-05-10T07:14:12.669Z,228.81
2023-05-10T07:15:13.228Z,229.47
2023-05-10T07:16:12.548Z,227.70
2023-05-10T07:17:12.540Z,227.47
2023-05-10T07:18:12.498Z,218.69
2023-05-10T07:19:13.402Z,216.49
2023-05-10T07:20:12.417Z,218.60
2023-05-10T07:21:12.399Z,217.39
2023-05-10T07:22:12.346Z,203.14
2023-05-10T07:23:13.167Z,205.86
2023-05-10T07:24:12.333Z,205.59
2023-05-10T07:25:12.367Z,206.81
2023-05-10T07:26:12.335Z,207.05
2023-05-10T07:27:12.298Z,204.56
2023-05-10T07:28:12.257Z,201.08
2023-05-10T07:29:12.227Z,198.50
2023-05-10T07:30:12.224Z,194.89
2023-05-10T07:31:12.215Z,194.43
2023-05-10T07:32:12.217Z,192.00
2023-05-10T07:33:12.266Z,189.91
2023-05-10T07:34:12.206Z,187.48
2023-05-10T07:35:12.178Z,185.90
2023-05-10T07:36:12.176Z,183.05
2023-05-10T07:37:12.164Z,182.43
2023-05-10T07:38:12.202Z,181.56
2023-05-10T07:39:16.258Z,181.12
2023-05-10T07:40:12.196Z,164.55
2023-05-10T07:41:12.106Z,65.78
2023-05-10T07:42:12.150Z,68.23
2023-05-10T07:43:12.133Z,57.35
2023-05-10T07:44:12.100Z,46.34
2023-05-10T07:45:12.110Z,38.04
2023-05-10T07:46:12.190Z,26.60
2023-05-10T07:47:12.131Z,34.87
2023-05-10T07:48:12.112Z,35.11
2023-05-10T07:49:12.116Z,20.41
2023-05-10T07:50:12.078Z,0.00
2023-05-10T07:51:12.085Z,10.46
2023-05-10T07:52:12.095Z,30.05
2023-05-10T07:53:12.113Z,41.77
2023-05-10T07:54:12.105Z,56.66
2023-05-10T07:55:12.077Z,75.85
2023-05-10T07:56:12.075Z,83.35
2023-05-10T07:57:12.110Z,88.54
2023-05-10T07:58:12.030Z,91.97
2023-05-10T07:59:12.880Z,95.24
2023-05-10T08:00:12.029Z,96.54
2023-05-10T08:01:12.028Z,98.10
2023-05-10T08:02:12.123Z,91.19
2023-05-10T08:03:12.302Z,79.05
2023-05-10T08:04:12.164Z,56.76
2023-05-10T08:05:12.208Z,48.49
2023-05-10T08:06:12.129Z,41.21
2023-05-10T08:07:12.110Z,32.32
2023-05-10T08:08:12.176Z,4.18
2023-05-10T08:09:12.109Z,0.00
2023-05-10T08:10:12.188Z,3.78
2023-05-10T08:11:12.085Z,10.23
2023-05-10T08:12:12.095Z,26.17
2023-05-10T08:13:12.085Z,42.64
2023-05-10T08:14:12.192Z,52.34
2023-05-10T08:15:13.198Z,56.25
2023-05-10T08:16:12.289Z,66.53
2023-05-10T08:17:12.327Z,76.69
2023-05-10T08:18:12.385Z,86.45
2023-05-10T08:19:12.415Z,86.68
2023-05-10T08:20:12.439Z,91.98
2023-05-10T08:21:12.496Z,84.16
2023-05-10T08:22:12.445Z,87.55
2023-05-10T08:23:12.439Z,83.28
2023-05-10T08:24:12.482Z,84.69
2023-05-10T08:25:12.474Z,77.44
2023-05-10T08:26:12.484Z,81.39
2023-05-10T08:27:12.490Z,73.25
2023-05-10T08:28:12.535Z,76.14
2023-05-10T08:29:12.533Z,68.95
2023-05-10T08:30:12.593Z,55.21
2023-05-10T08:31:12.612Z,52.48
2023-05-10T08:32:12.641Z,76.79
2023-05-10T08:33:12.650Z,105.32
2023-05-10T08:34:12.562Z,90.49
2023-05-10T08:35:12.634Z,74.18
2023-05-10T08:36:12.600Z,63.55
2023-05-10T08:37:12.636Z,74.70
2023-05-10T08:38:12.672Z,64.38
2023-05-10T08:39:22.862Z,50.60
2023-05-10T08:40:12.717Z,51.03
2023-05-10T08:41:12.723Z,51.83
2023-05-10T08:42:12.745Z,54.73
2023-05-10T08:43:12.726Z,34.66
2023-05-10T08:44:12.753Z,26.88
2023-05-10T08:45:12.757Z,24.36
2023-05-10T08:46:12.756Z,24.50
2023-05-10T08:47:12.822Z,27.39
2023-05-10T08:48:12.809Z,36.29
2023-05-10T08:49:12.717Z,52.10
2023-05-10T08:50:12.741Z,67.92
2023-05-10T08:51:12.725Z,64.86
2023-05-10T08:52:12.730Z,52.91
2023-05-10T08:53:12.761Z,39.04
2023-05-10T08:54:12.739Z,34.62
2023-05-10T08:55:12.827Z,29.63
2023-05-10T08:56:12.786Z,33.32
2023-05-10T08:57:12.772Z,33.78
2023-05-10T08:58:12.791Z,26.35
2023-05-10T08:59:12.781Z,41.69
2023-05-10T09:00:12.951Z,51.39
2023-05-10T09:01:12.960Z,68.09
2023-05-10T09:02:12.959Z,88.52
2023-05-10T09:03:12.959Z,102.04
2023-05-10T09:04:13.064Z,93.96
2023-05-10T09:05:13.022Z,100.01
2023-05-10T09:06:13.001Z,89.00
2023-05-10T09:07:12.992Z,79.39
2023-05-10T09:08:13.060Z,101.92
2023-05-10T09:09:13.045Z,93.43
2023-05-10T09:10:13.068Z,75.01
2023-05-10T09:11:13.058Z,77.52
2023-05-10T09:12:13.074Z,73.92
2023-05-10T09:13:13.107Z,89.92
2023-05-10T09:14:13.206Z,86.95
2023-05-10T09:15:13.214Z,99.44
2023-05-10T09:16:20.938Z,87.24
2023-05-10T09:17:14.259Z,87.81
2023-05-10T09:18:13.395Z,78.70
2023-05-10T09:19:13.390Z,59.58
2023-05-10T09:20:13.495Z,65.46
2023-05-10T09:21:13.297Z,84.80
2023-05-10T09:22:13.229Z,90.00
2023-05-10T09:23:13.250Z,71.34
2023-05-10T09:24:13.230Z,69.42
2023-05-10T09:25:13.245Z,63.40
2023-05-10T09:26:13.305Z,60.04
2023-05-10T09:27:13.363Z,70.68
2023-05-10T09:28:13.233Z,68.58
2023-05-10T09:29:14.669Z,56.03
2023-05-10T09:30:13.213Z,46.80
2023-05-10T09:31:13.334Z,52.63
2023-05-10T09:32:13.785Z,52.12
2023-05-10T09:33:13.243Z,80.76
2023-05-10T09:34:13.242Z,40.64
2023-05-10T09:35:13.253Z,56.60
2023-05-10T09:36:13.320Z,47.94
2023-05-10T09:37:13.274Z,50.21
2023-05-10T09:38:13.392Z,65.36
2023-05-10T09:39:13.359Z,57.65
2023-05-10T09:40:14.160Z,82.53
2023-05-10T09:41:13.446Z,99.79
2023-05-10T09:42:13.516Z,90.52
2023-05-10T09:43:13.501Z,61.06
2023-05-10T09:44:13.548Z,62.89
2023-05-10T09:45:13.628Z,56.44
2023-05-10T09:46:13.686Z,95.20
2023-05-10T09:47:13.615Z,108.68
2023-05-10T09:48:13.711Z,81.35
2023-05-10T09:49:13.796Z,69.52
2023-05-10T09:50:13.899Z,67.21
2023-05-10T09:51:13.897Z,38.76
2023-05-10T09:52:13.866Z,35.97
2023-05-10T09:53:13.873Z,27.61
2023-05-10T09:54:13.916Z,16.65
2023-05-10T09:55:14.083Z,20.58
2023-05-10T09:56:13.899Z,1.08
2023-05-10T09:57:14.214Z,12.27
2023-05-10T09:58:13.884Z,20.31
2023-05-10T09:59:13.871Z,22.89
2023-05-10T10:00:13.895Z,25.72
2023-05-10T10:01:13.938Z,30.31
2023-05-10T10:02:13.983Z,25.16
2023-05-10T10:03:13.881Z,25.72
2023-05-10T10:04:13.938Z,26.74
2023-05-10T10:05:14.010Z,25.11
2023-05-10T10:06:26.457Z,25.00
2023-05-10T10:07:14.951Z,17.69
2023-05-10T10:08:14.067Z,21.12
2023-05-10T10:09:13.936Z,10.95
2023-05-10T10:10:13.930Z,10.20
2023-05-10T10:11:13.959Z,23.35
2023-05-10T10:12:13.927Z,24.39
2023-05-10T10:13:13.950Z,28.66
2023-05-10T10:14:14.069Z,30.02
2023-05-10T10:15:16.507Z,45.12
2023-05-10T10:16:14.050Z,48.78
2023-05-10T10:17:13.944Z,69.15
2023-05-10T10:18:13.915Z,98.07
2023-05-10T10:19:13.907Z,118.01
2023-05-10T10:20:14.253Z,128.18
2023-05-10T10:21:13.922Z,128.80
2023-05-10T10:22:13.914Z,134.05
2023-05-10T10:23:15.831Z,121.51
2023-05-10T10:24:13.888Z,121.53
2023-05-10T10:25:13.938Z,111.22
2023-05-10T10:26:13.886Z,112.57
2023-05-10T10:27:13.892Z,83.09
2023-05-10T10:28:13.891Z,82.85
2023-05-10T10:29:13.918Z,102.36
2023-05-10T10:30:13.975Z,112.30
2023-05-10T10:31:13.879Z,119.72
2023-05-10T10:32:13.860Z,123.21
2023-05-10T10:33:27.243Z,129.31
2023-05-10T10:34:14.859Z,121.89
2023-05-10T10:35:13.844Z,123.47
2023-05-10T10:36:13.849Z,127.33
2023-05-10T10:37:13.854Z,132.02
2023-05-10T10:38:13.810Z,137.33
2023-05-10T10:39:13.853Z,141.52
2023-05-10T10:40:13.777Z,150.35
2023-05-10T10:41:13.779Z,151.05
2023-05-10T10:42:13.776Z,158.80
2023-05-10T10:43:13.847Z,157.45
2023-05-10T10:44:13.737Z,160.34
2023-05-10T10:45:13.899Z,163.34
2023-05-10T10:46:13.726Z,155.41
2023-05-10T10:47:13.715Z,150.55
2023-05-10T10:48:13.710Z,149.43
2023-05-10T10:49:13.724Z,152.31
2023-05-10T10:50:13.706Z,151.15
2023-05-10T10:51:13.660Z,157.12
2023-05-10T10:52:13.663Z,159.15
2023-05-10T10:53:13.674Z,156.36
2023-05-10T10:54:13.679Z,153.20
2023-05-10T10:55:13.634Z,150.94
2023-05-10T10:56:13.659Z,145.55
2023-05-10T10:57:13.599Z,151.57
2023-05-10T10:58:13.589Z,145.05
2023-05-10T10:59:13.576Z,125.06
2023-05-10T11:00:13.576Z,135.75
2023-05-10T11:01:13.633Z,138.49
2023-05-10T11:02:13.586Z,120.41
2023-05-10T11:03:13.633Z,130.17
2023-05-10T11:04:14.046Z,133.68
2023-05-10T11:05:13.718Z,136.90
2023-05-10T11:06:13.723Z,140.60
2023-05-10T11:07:13.759Z,142.95
2023-05-10T11:08:13.756Z,143.00
2023-05-10T11:09:13.725Z,103.99
2023-05-10T11:10:13.716Z,87.15
2023-05-10T11:11:13.725Z,107.77
2023-05-10T11:12:13.812Z,78.54
2023-05-10T11:13:13.704Z,102.76
2023-05-10T11:14:14.570Z,70.79
2023-05-10T11:15:13.692Z,96.10
2023-05-10T11:16:13.691Z,111.26
2023-05-10T11:17:13.739Z,115.56
2023-05-10T11:18:13.710Z,114.87
2023-05-10T11:19:13.799Z,101.10
2023-05-10T11:20:13.729Z,98.14
2023-05-10T11:21:14.052Z,105.14
2023-05-10T11:22:13.612Z,44.78
2023-05-10T11:23:13.674Z,34.32
2023-05-10T11:24:13.725Z,11.05
2023-05-10T11:25:13.628Z,45.00
2023-05-10T11:26:13.615Z,64.37
2023-05-10T11:27:14.229Z,77.54
2023-05-10T11:28:13.616Z,95.22
2023-05-10T11:29:13.622Z,132.36
2023-05-10T11:30:13.841Z,147.27
2023-05-10T11:31:13.733Z,155.09
2023-05-10T11:32:13.779Z,167.58
2023-05-10T11:33:13.731Z,180.43
2023-05-10T11:34:13.797Z,184.13
2023-05-10T11:35:13.765Z,188.84
2023-05-10T11:36:13.798Z,191.52
2023-05-10T11:37:13.818Z,192.03
2023-05-10T11:38:13.814Z,196.41
2023-05-10T11:39:13.851Z,195.25
2023-05-10T11:40:13.891Z,195.60
2023-05-10T11:41:13.888Z,193.19
2023-05-10T11:42:13.886Z,194.60
2023-05-10T11:43:13.877Z,192.88
2023-05-10T11:44:13.893Z,196.01
2023-05-10T11:45:13.893Z,193.70
2023-05-10T11:46:13.937Z,192.12
2023-05-10T11:47:13.919Z,192.15
2023-05-10T11:48:13.925Z,192.77
2023-05-10T11:49:13.884Z,192.64
2023-05-10T11:50:14.003Z,192.58
2023-05-10T11:51:13.881Z,194.11
2023-05-10T11:52:13.872Z,191.04
2023-05-10T11:53:13.953Z,188.96
2023-05-10T11:54:13.870Z,187.42
2023-05-10T11:55:13.879Z,188.21
2023-05-10T11:56:13.839Z,188.22
2023-05-10T11:57:13.992Z,188.45
2023-05-10T11:58:13.855Z,185.13
2023-05-10T11:59:13.840Z,185.53
2023-05-10T12:00:13.927Z,185.61
2023-05-10T12:01:13.849Z,181.93
2023-05-10T12:02:13.819Z,181.83
2023-05-10T12:03:13.978Z,184.88
2023-05-10T12:04:14.043Z,180.85
2023-05-10T12:05:13.815Z,182.12
2023-05-10T12:06:14.191Z,181.43
2023-05-10T12:07:13.828Z,181.67
2023-05-10T12:08:13.820Z,179.24
2023-05-10T12:09:13.791Z,180.92
2023-05-10T12:10:13.862Z,178.13
2023-05-10T12:11:13.826Z,177.76
2023-05-10T12:12:13.781Z,172.03
2023-05-10T12:13:13.763Z,172.80
2023-05-10T12:14:14.758Z,170.48
2023-05-10T12:15:13.932Z,172.52
2023-05-10T12:16:13.833Z,171.40
2023-05-10T12:17:13.767Z,170.18
2023-05-10T12:18:13.809Z,170.55
2023-05-10T12:19:13.799Z,170.70
2023-05-10T12:20:13.828Z,170.77
2023-05-10T12:21:13.809Z,172.21
2023-05-10T12:22:13.766Z,172.94
2023-05-10T12:23:13.793Z,168.42
2023-05-10T12:24:13.831Z,167.13
2023-05-10T12:25:13.805Z,169.85
2023-05-10T12:26:13.839Z,166.80
2023-05-10T12:27:13.909Z,167.07
2023-05-10T12:28:13.862Z,165.16
2023-05-10T12:29:13.878Z,165.22
2023-05-10T12:30:13.889Z,164.29
2023-05-10T12:31:13.945Z,164.75
2023-05-10T12:32:14.131Z,165.22
2023-05-10T12:33:14.023Z,163.24
2023-05-10T12:34:13.946Z,162.41
2023-05-10T12:35:13.963Z,161.45
2023-05-10T12:36:13.983Z,161.75
2023-05-10T12:37:14.001Z,160.51
2023-05-10T12:38:14.021Z,160.68
2023-05-10T12:39:14.041Z,159.14